sensor_id;sensor_type;location;lat;lon;timestamp;pressure;altitude;pressure_sealevel;temperature;humidity
11190;BME280;5651;50.926;4.718;2023-04-01T00:00:27;99211.38;;;10.09;100.00
11190;BME280;5651;50.926;4.718;2023-04-01T00:03:00;99216.69;;;10.06;100.00
11190;BME280;5651;50.926;4.718;2023-04-01T00:05:26;99210.59;;;10.06;100.00
11190;BME280;5651;50.926;4.718;2023-04-01T00:07:52;99221.97;;;10.03;100.00
11190;BME280;5651;50.926;4.718;2023-04-01T00:10:18;99219.28;;;10.06;100.00
11190;BME280;5651;50.926;4.718;2023-04-01T00:12:44;99214.97;;;10.05;100.00
11190;BME280;5651;50.926;4.718;2023-04-01T00:15:11;99222.16;;;9.97;100.00
11190;BME280;5651;50.926;4.718;2023-04-01T00:17:37;99221.91;;;10.05;100.00
11190;BME280;5651;50.926;4.718;2023-04-01T00:20:04;99228.88;;;10.04;100.00
11190;BME280;5651;50.926;4.718;2023-04-01T00:22:30;99219.41;;;10.02;100.00
11190;BME280;5651;50.926;4.718;2023-04-01T00:24:56;99221.88;;;10.06;100.00
11190;BME280;5651;50.926;4.718;2023-04-01T00:27:22;99228.13;;;10.01;100.00
11190;BME280;5651;50.926;4.718;2023-04-01T00:29:48;99218.41;;;10.06;100.00
11190;BME280;5651;50.926;4.718;2023-04-01T00:32:14;99221.06;;;10.04;100.00
11190;BME280;5651;50.926;4.718;2023-04-01T00:34:41;99216.69;;;10.06;100.00
11190;BME280;5651;50.926;4.718;2023-04-01T00:37:07;99220.00;;;10.11;100.00
11190;BME280;5651;50.926;4.718;2023-04-01T00:39:34;99217.63;;;10.04;100.00
11190;BME280;5651;50.926;4.718;2023-04-01T00:42:01;99225.38;;;10.05;100.00
11190;BME280;5651;50.926;4.718;2023-04-01T00:44:33;99227.09;;;10.06;100.00
11190;BME280;5651;50.926;4.718;2023-04-01T00:47:00;99225.19;;;10.11;100.00
11190;BME280;5651;50.926;4.718;2023-04-01T00:49:44;99235.84;;;10.04;100.00
11190;BME280;5651;50.926;4.718;2023-04-01T00:52:14;99239.09;;;10.10;100.00
11190;BME280;5651;50.926;4.718;2023-04-01T00:54:44;99232.38;;;10.03;100.00
11190;BME280;5651;50.926;4.718;2023-04-01T00:59:52;99237.59;;;10.03;100.00
11190;BME280;5651;50.926;4.718;2023-04-01T01:02:20;99241.97;;;10.01;100.00
11190;BME280;5651;50.926;4.718;2023-04-01T01:04:46;99232.50;;;9.98;100.00
11190;BME280;5651;50.926;4.718;2023-04-01T01:07:20;99239.53;;;9.96;100.00
11190;BME280;5651;50.926;4.718;2023-04-01T01:10:20;99244.09;;;10.18;100.00
11190;BME280;5651;50.926;4.718;2023-04-01T01:18:09;99255.03;;;9.99;100.00
11190;BME280;5651;50.926;4.718;2023-04-01T01:29:22;99259.94;;;10.10;100.00
11190;BME280;5651;50.926;4.718;2023-04-01T01:32:02;99253.69;;;10.16;100.00
11190;BME280;5651;50.926;4.718;2023-04-01T01:37:20;99256.25;;;10.18;100.00
11190;BME280;5651;50.926;4.718;2023-04-01T01:39:54;99257.25;;;10.13;100.00
11190;BME280;5651;50.926;4.718;2023-04-01T01:42:23;99257.44;;;10.06;100.00
11190;BME280;5651;50.926;4.718;2023-04-01T01:44:52;99251.94;;;10.17;100.00
11190;BME280;5651;50.926;4.718;2023-04-01T01:47:20;99265.94;;;10.12;100.00
11190;BME280;5651;50.926;4.718;2023-04-01T01:49:48;99263.53;;;10.06;100.00
11190;BME280;5651;50.926;4.718;2023-04-01T01:52:16;99254.81;;;10.07;100.00
11190;BME280;5651;50.926;4.718;2023-04-01T01:54:50;99260.88;;;10.08;100.00
11190;BME280;5651;50.926;4.718;2023-04-01T01:57:19;99266.16;;;10.05;100.00
11190;BME280;5651;50.926;4.718;2023-04-01T01:59:46;99266.03;;;10.09;100.00
11190;BME280;5651;50.926;4.718;2023-04-01T02:02:14;99263.59;;;10.03;100.00
11190;BME280;5651;50.926;4.718;2023-04-01T02:04:43;99273.97;;;10.05;100.00
11190;BME280;5651;50.926;4.718;2023-04-01T02:07:16;99273.84;;;10.09;100.00
11190;BME280;5651;50.926;4.718;2023-04-01T02:09:44;99279.97;;;10.07;100.00
11190;BME280;5651;50.926;4.718;2023-04-01T02:12:12;99293.00;;;10.07;100.00
11190;BME280;5651;50.926;4.718;2023-04-01T02:17:13;99289.44;;;10.11;100.00
11190;BME280;5651;50.926;4.718;2023-04-01T02:19:48;99302.03;;;9.93;100.00
11190;BME280;5651;50.926;4.718;2023-04-01T02:22:20;99294.78;;;10.05;100.00
11190;BME280;5651;50.926;4.718;2023-04-01T02:24:49;99296.91;;;9.90;100.00
11190;BME280;5651;50.926;4.718;2023-04-01T02:27:16;99301.41;;;9.85;100.00
11190;BME280;5651;50.926;4.718;2023-04-01T02:29:42;99308.34;;;9.85;100.00
11190;BME280;5651;50.926;4.718;2023-04-01T02:32:09;99312.38;;;9.96;100.00
11190;BME280;5651;50.926;4.718;2023-04-01T02:34:35;99311.69;;;9.90;100.00
11190;BME280;5651;50.926;4.718;2023-04-01T02:37:01;99314.03;;;9.99;100.00
11190;BME280;5651;50.926;4.718;2023-04-01T02:39:27;99323.41;;;10.05;100.00
11190;BME280;5651;50.926;4.718;2023-04-01T02:41:53;99320.56;;;10.14;100.00
11190;BME280;5651;50.926;4.718;2023-04-01T02:44:19;99317.47;;;9.99;100.00
11190;BME280;5651;50.926;4.718;2023-04-01T02:46:45;99321.03;;;9.97;100.00
11190;BME280;5651;50.926;4.718;2023-04-01T02:49:11;99319.72;;;9.80;100.00
11190;BME280;5651;50.926;4.718;2023-04-01T02:51:37;99319.47;;;9.90;100.00
11190;BME280;5651;50.926;4.718;2023-04-01T02:54:03;99320.47;;;9.86;100.00
11190;BME280;5651;50.926;4.718;2023-04-01T02:56:29;99329.16;;;9.85;100.00
11190;BME280;5651;50.926;4.718;2023-04-01T02:58:55;99317.78;;;9.89;100.00
11190;BME280;5651;50.926;4.718;2023-04-01T03:01:21;99332.44;;;9.93;100.00
11190;BME280;5651;50.926;4.718;2023-04-01T03:03:47;99324.63;;;9.93;100.00
11190;BME280;5651;50.926;4.718;2023-04-01T03:06:16;99334.97;;;9.94;100.00
11190;BME280;5651;50.926;4.718;2023-04-01T03:08:42;99339.66;;;9.81;100.00
11190;BME280;5651;50.926;4.718;2023-04-01T03:11:09;99349.22;;;9.79;100.00
11190;BME280;5651;50.926;4.718;2023-04-01T03:13:35;99342.31;;;9.78;100.00
11190;BME280;5651;50.926;4.718;2023-04-01T03:16:01;99341.41;;;9.79;100.00
11190;BME280;5651;50.926;4.718;2023-04-01T03:18:27;99346.44;;;9.87;100.00
11190;BME280;5651;50.926;4.718;2023-04-01T03:20:53;99360.09;;;9.95;100.00
11190;BME280;5651;50.926;4.718;2023-04-01T03:23:19;99358.56;;;9.87;100.00
11190;BME280;5651;50.926;4.718;2023-04-01T03:25:46;99368.03;;;9.91;100.00
11190;BME280;5651;50.926;4.718;2023-04-01T03:28:12;99356.16;;;9.80;100.00
11190;BME280;5651;50.926;4.718;2023-04-01T03:30:39;99357.97;;;9.77;100.00
11190;BME280;5651;50.926;4.718;2023-04-01T03:33:06;99370.13;;;9.76;100.00
11190;BME280;5651;50.926;4.718;2023-04-01T03:35:32;99371.06;;;9.74;100.00
11190;BME280;5651;50.926;4.718;2023-04-01T03:37:58;99376.00;;;9.83;100.00
11190;BME280;5651;50.926;4.718;2023-04-01T03:40:24;99370.13;;;9.76;100.00
11190;BME280;5651;50.926;4.718;2023-04-01T03:42:51;99381.38;;;9.77;100.00
11190;BME280;5651;50.926;4.718;2023-04-01T03:45:18;99378.88;;;9.72;100.00
11190;BME280;5651;50.926;4.718;2023-04-01T03:47:44;99375.63;;;9.64;100.00
11190;BME280;5651;50.926;4.718;2023-04-01T03:50:10;99397.38;;;9.61;100.00
11190;BME280;5651;50.926;4.718;2023-04-01T03:52:36;99388.47;;;9.72;100.00
11190;BME280;5651;50.926;4.718;2023-04-01T03:55:01;99390.63;;;9.89;100.00
11190;BME280;5651;50.926;4.718;2023-04-01T03:57:27;99384.97;;;9.73;100.00
11190;BME280;5651;50.926;4.718;2023-04-01T03:59:53;99390.16;;;9.73;100.00
11190;BME280;5651;50.926;4.718;2023-04-01T04:02:19;99394.22;;;9.85;100.00
11190;BME280;5651;50.926;4.718;2023-04-01T04:04:45;99394.31;;;9.80;100.00
11190;BME280;5651;50.926;4.718;2023-04-01T04:07:12;99409.06;;;9.79;100.00
11190;BME280;5651;50.926;4.718;2023-04-01T04:09:38;99402.34;;;9.71;100.00
11190;BME280;5651;50.926;4.718;2023-04-01T04:12:04;99407.59;;;9.69;100.00
11190;BME280;5651;50.926;4.718;2023-04-01T04:14:31;99406.72;;;9.70;100.00
11190;BME280;5651;50.926;4.718;2023-04-01T04:16:57;99409.16;;;9.76;100.00
11190;BME280;5651;50.926;4.718;2023-04-01T04:19:23;99413.31;;;9.82;100.00
11190;BME280;5651;50.926;4.718;2023-04-01T04:21:49;99424.09;;;9.68;100.00
11190;BME280;5651;50.926;4.718;2023-04-01T04:24:15;99416.91;;;9.78;100.00
11190;BME280;5651;50.926;4.718;2023-04-01T04:26:41;99425.03;;;9.64;100.00
11190;BME280;5651;50.926;4.718;2023-04-01T04:29:06;99431.13;;;9.64;100.00
11190;BME280;5651;50.926;4.718;2023-04-01T04:31:32;99427.38;;;9.75;100.00
11190;BME280;5651;50.926;4.718;2023-04-01T04:33:59;99433.19;;;9.86;100.00
11190;BME280;5651;50.926;4.718;2023-04-01T04:36:26;99427.81;;;9.92;100.00
11190;BME280;5651;50.926;4.718;2023-04-01T04:38:52;99428.19;;;9.77;100.00
11190;BME280;5651;50.926;4.718;2023-04-01T04:41:18;99426.69;;;9.68;100.00
11190;BME280;5651;50.926;4.718;2023-04-01T04:43:53;99441.56;;;9.63;100.00
11190;BME280;5651;50.926;4.718;2023-04-01T04:46:20;99440.53;;;9.68;100.00
11190;BME280;5651;50.926;4.718;2023-04-01T04:48:46;99441.47;;;9.66;100.00
11190;BME280;5651;50.926;4.718;2023-04-01T04:51:17;99450.16;;;9.65;100.00
11190;BME280;5651;50.926;4.718;2023-04-01T04:53:43;99446.47;;;9.75;100.00
11190;BME280;5651;50.926;4.718;2023-04-01T04:56:10;99454.44;;;9.67;100.00
11190;BME280;5651;50.926;4.718;2023-04-01T04:58:36;99457.72;;;9.76;100.00
11190;BME280;5651;50.926;4.718;2023-04-01T05:01:11;99459.72;;;9.64;100.00
11190;BME280;5651;50.926;4.718;2023-04-01T05:03:37;99463.25;;;9.62;100.00
11190;BME280;5651;50.926;4.718;2023-04-01T05:06:04;99467.59;;;9.61;100.00
11190;BME280;5651;50.926;4.718;2023-04-01T05:08:31;99470.53;;;9.83;100.00
11190;BME280;5651;50.926;4.718;2023-04-01T05:10:58;99467.47;;;9.66;100.00
11190;BME280;5651;50.926;4.718;2023-04-01T05:13:24;99464.72;;;9.74;100.00
11190;BME280;5651;50.926;4.718;2023-04-01T05:15:50;99475.47;;;9.57;100.00
11190;BME280;5651;50.926;4.718;2023-04-01T05:18:16;99485.88;;;9.58;100.00
11190;BME280;5651;50.926;4.718;2023-04-01T05:20:50;99484.78;;;9.67;100.00
11190;BME280;5651;50.926;4.718;2023-04-01T05:23:16;99488.28;;;9.66;100.00
11190;BME280;5651;50.926;4.718;2023-04-01T05:25:43;99496.97;;;9.66;100.00
11190;BME280;5651;50.926;4.718;2023-04-01T05:28:10;99496.88;;;9.70;100.00
11190;BME280;5651;50.926;4.718;2023-04-01T05:30:36;99488.28;;;9.66;100.00
11190;BME280;5651;50.926;4.718;2023-04-01T05:33:05;99498.63;;;9.69;100.00
11190;BME280;5651;50.926;4.718;2023-04-01T05:35:30;99496.72;;;9.77;100.00
11190;BME280;5651;50.926;4.718;2023-04-01T05:37:56;99493.44;;;9.69;100.00
11190;BME280;5651;50.926;4.718;2023-04-01T05:40:22;99504.53;;;9.76;100.00
11190;BME280;5651;50.926;4.718;2023-04-01T05:42:48;99513.78;;;9.88;100.00
11190;BME280;5651;50.926;4.718;2023-04-01T05:45:14;99507.28;;;9.70;100.00
11190;BME280;5651;50.926;4.718;2023-04-01T05:47:41;99518.38;;;9.78;100.00
11190;BME280;5651;50.926;4.718;2023-04-01T05:50:10;99528.97;;;9.68;100.00
11190;BME280;5651;50.926;4.718;2023-04-01T05:52:37;99521.16;;;9.68;100.00
11190;BME280;5651;50.926;4.718;2023-04-01T05:55:03;99519.41;;;9.71;100.00
11190;BME280;5651;50.926;4.718;2023-04-01T05:57:30;99524.66;;;9.67;100.00
11190;BME280;5651;50.926;4.718;2023-04-01T05:59:56;99533.47;;;9.62;100.00
11190;BME280;5651;50.926;4.718;2023-04-01T06:02:22;99530.88;;;9.62;100.00
11190;BME280;5651;50.926;4.718;2023-04-01T06:04:48;99534.34;;;9.61;100.00
11190;BME280;5651;50.926;4.718;2023-04-01T06:07:16;99534.41;;;9.58;100.00
11190;BME280;5651;50.926;4.718;2023-04-01T06:09:44;99543.88;;;9.60;100.00
11190;BME280;5651;50.926;4.718;2023-04-01T06:12:23;99543.00;;;9.61;100.00
11190;BME280;5651;50.926;4.718;2023-04-01T06:23:24;99565.09;;;9.82;100.00
11190;BME280;5651;50.926;4.718;2023-04-01T06:26:10;99566.91;;;9.79;100.00
11190;BME280;5651;50.926;4.718;2023-04-01T06:33:57;99572.75;;;9.89;100.00
11190;BME280;5651;50.926;4.718;2023-04-01T06:36:59;99579.97;;;9.77;100.00
11190;BME280;5651;50.926;4.718;2023-04-01T06:39:54;99587.63;;;9.82;100.00
11190;BME280;5651;50.926;4.718;2023-04-01T06:50:03;99599.97;;;9.74;100.00
11190;BME280;5651;50.926;4.718;2023-04-01T06:52:50;99599.91;;;9.77;100.00
11190;BME280;5651;50.926;4.718;2023-04-01T06:55:36;99599.06;;;9.75;100.00
11190;BME280;5651;50.926;4.718;2023-04-01T06:58:07;99607.94;;;9.66;100.00
11190;BME280;5651;50.926;4.718;2023-04-01T07:00:39;99601.88;;;9.65;100.00
11190;BME280;5651;50.926;4.718;2023-04-01T07:03:18;99610.50;;;9.67;100.00
11190;BME280;5651;50.926;4.718;2023-04-01T07:05:45;99609.47;;;9.75;100.00
11190;BME280;5651;50.926;4.718;2023-04-01T07:08:17;99623.41;;;9.72;100.00
11190;BME280;5651;50.926;4.718;2023-04-01T07:11:44;99628.75;;;9.66;100.00
11190;BME280;5651;50.926;4.718;2023-04-01T07:13:59;99639.16;;;9.66;100.00
11190;BME280;5651;50.926;4.718;2023-04-01T07:16:29;99641.59;;;9.74;100.00
11190;BME280;5651;50.926;4.718;2023-04-01T07:21:49;99646.09;;;9.64;100.00
11190;BME280;5651;50.926;4.718;2023-04-01T07:24:32;99652.81;;;9.77;100.00
11190;BME280;5651;50.926;4.718;2023-04-01T07:26:59;99641.59;;;9.72;100.00
11190;BME280;5651;50.926;4.718;2023-04-01T07:29:25;99653.81;;;9.68;100.00
11190;BME280;5651;50.926;4.718;2023-04-01T07:32:09;99655.66;;;9.63;100.00
11190;BME280;5651;50.926;4.718;2023-04-01T07:34:51;99645.78;;;9.81;100.00
11190;BME280;5651;50.926;4.718;2023-04-01T07:37:31;99663.22;;;9.77;100.00
11190;BME280;5651;50.926;4.718;2023-04-01T07:40:28;99666.69;;;9.76;100.00
11190;BME280;5651;50.926;4.718;2023-04-01T07:43:11;99669.19;;;9.81;100.00
11190;BME280;5651;50.926;4.718;2023-04-01T07:45:44;99678.69;;;9.83;100.00
11190;BME280;5651;50.926;4.718;2023-04-01T07:53:54;99679.78;;;9.72;100.00
11190;BME280;5651;50.926;4.718;2023-04-01T07:56:30;99691.00;;;9.75;100.00
11190;BME280;5651;50.926;4.718;2023-04-01T08:05:26;99690.38;;;10.05;100.00
11190;BME280;5651;50.926;4.718;2023-04-01T08:08:06;99700.75;;;10.06;100.00
11190;BME280;5651;50.926;4.718;2023-04-01T08:13:33;99699.47;;;10.26;100.00
11190;BME280;5651;50.926;4.718;2023-04-01T08:21:11;99712.28;;;10.35;100.00
11190;BME280;5651;50.926;4.718;2023-04-01T08:23:47;99714.94;;;10.34;100.00
11190;BME280;5651;50.926;4.718;2023-04-01T08:26:32;99721.88;;;10.33;100.00
11190;BME280;5651;50.926;4.718;2023-04-01T08:29:04;99728.91;;;10.29;100.00
11190;BME280;5651;50.926;4.718;2023-04-01T08:34:26;99732.34;;;10.31;100.00
11190;BME280;5651;50.926;4.718;2023-04-01T08:37:01;99747.03;;;10.34;100.00
11190;BME280;5651;50.926;4.718;2023-04-01T08:39:34;99748.63;;;10.41;100.00
11190;BME280;5651;50.926;4.718;2023-04-01T08:42:30;99750.75;;;10.65;100.00
11190;BME280;5651;50.926;4.718;2023-04-01T08:50:36;99755.97;;;10.63;100.00
11190;BME280;5651;50.926;4.718;2023-04-01T08:53:17;99752.66;;;10.56;100.00
11190;BME280;5651;50.926;4.718;2023-04-01T08:56:36;99759.69;;;10.53;100.00
11190;BME280;5651;50.926;4.718;2023-04-01T09:13:54;99773.59;;;10.91;100.00
11190;BME280;5651;50.926;4.718;2023-04-01T09:19:37;99777.88;;;10.92;100.00
11190;BME280;5651;50.926;4.718;2023-04-01T09:28:13;99779.34;;;11.05;100.00
11190;BME280;5651;50.926;4.718;2023-04-01T09:33:55;99782.72;;;11.09;100.00
11190;BME280;5651;50.926;4.718;2023-04-01T09:42:13;99792.53;;;11.34;100.00
11190;BME280;5651;50.926;4.718;2023-04-01T09:44:46;99792.78;;;11.24;100.00
11190;BME280;5651;50.926;4.718;2023-04-01T09:50:38;99801.41;;;11.26;100.00
11190;BME280;5651;50.926;4.718;2023-04-01T09:59:24;99810.72;;;11.37;100.00
11190;BME280;5651;50.926;4.718;2023-04-01T10:05:11;99810.69;;;11.38;100.00
11190;BME280;5651;50.926;4.718;2023-04-01T10:27:34;99832.56;;;11.67;100.00
11190;BME280;5651;50.926;4.718;2023-04-01T10:36:02;99841.41;;;11.98;100.00
11190;BME280;5651;50.926;4.718;2023-04-01T11:03:15;99856.63;;;12.45;100.00
11190;BME280;5651;50.926;4.718;2023-04-01T11:06:04;99868.72;;;12.49;100.00
11190;BME280;5651;50.926;4.718;2023-04-01T11:38:12;99902.06;;;12.41;100.00
11190;BME280;5651;50.926;4.718;2023-04-01T11:43:54;99901.06;;;12.45;100.00
11190;BME280;5651;50.926;4.718;2023-04-01T11:49:44;99908.06;;;12.43;100.00
11190;BME280;5651;50.926;4.718;2023-04-01T11:57:51;99914.81;;;12.51;100.00
11190;BME280;5651;50.926;4.718;2023-04-01T12:08:46;99926.13;;;12.52;100.00
11190;BME280;5651;50.926;4.718;2023-04-01T12:19:48;99939.16;;;12.54;100.00
11190;BME280;5651;50.926;4.718;2023-04-01T12:28:03;99946.75;;;12.93;100.00
11190;BME280;5651;50.926;4.718;2023-04-01T12:30:34;99953.00;;;12.89;100.00
11190;BME280;5651;50.926;4.718;2023-04-01T12:33:27;99951.41;;;12.83;100.00
11190;BME280;5651;50.926;4.718;2023-04-01T12:36:05;99958.06;;;12.63;100.00
11190;BME280;5651;50.926;4.718;2023-04-01T12:42:05;99970.34;;;12.27;100.00
11190;BME280;5651;50.926;4.718;2023-04-01T12:45:02;99965.16;;;12.25;100.00
11190;BME280;5651;50.926;4.718;2023-04-01T13:01:25;99981.88;;;11.80;100.00
11190;BME280;5651;50.926;4.718;2023-04-01T13:06:55;99988.34;;;12.03;100.00
11190;BME280;5651;50.926;4.718;2023-04-01T13:12:29;100000.25;;;12.15;100.00
11190;BME280;5651;50.926;4.718;2023-04-01T13:15:28;99994.00;;;12.20;100.00
11190;BME280;5651;50.926;4.718;2023-04-01T13:20:42;99997.44;;;12.23;100.00
11190;BME280;5651;50.926;4.718;2023-04-01T13:23:28;100006.41;;;12.12;100.00
11190;BME280;5651;50.926;4.718;2023-04-01T13:26:22;100007.25;;;12.13;100.00
11190;BME280;5651;50.926;4.718;2023-04-01T13:31:37;100007.19;;;12.16;100.00
11190;BME280;5651;50.926;4.718;2023-04-01T13:34:21;100002.97;;;12.10;100.00
11190;BME280;5651;50.926;4.718;2023-04-01T13:36:57;100018.47;;;12.16;100.00
11190;BME280;5651;50.926;4.718;2023-04-01T13:42:26;100027.78;;;11.91;100.00
11190;BME280;5651;50.926;4.718;2023-04-01T13:59:32;100043.81;;;12.13;100.00
11190;BME280;5651;50.926;4.718;2023-04-01T14:05:29;100043.75;;;12.16;100.00
11190;BME280;5651;50.926;4.718;2023-04-01T14:10:52;100049.03;;;12.13;100.00
11190;BME280;5651;50.926;4.718;2023-04-01T14:13:37;100051.09;;;12.00;100.00
11190;BME280;5651;50.926;4.718;2023-04-01T14:21:21;100063.75;;;12.17;100.00
11190;BME280;5651;50.926;4.718;2023-04-01T14:24:20;100062.50;;;11.94;100.00
11190;BME280;5651;50.926;4.718;2023-04-01T14:27:16;100065.94;;;11.98;100.00
11190;BME280;5651;50.926;4.718;2023-04-01T14:40:27;100071.06;;;12.02;100.00
11190;BME280;5651;50.926;4.718;2023-04-01T14:45:44;100083.06;;;12.10;100.00
11190;BME280;5651;50.926;4.718;2023-04-01T14:50:49;100076.59;;;12.26;100.00
11190;BME280;5651;50.926;4.718;2023-04-01T14:53:26;100090.47;;;12.28;100.00
11190;BME280;5651;50.926;4.718;2023-04-01T14:56:01;100086.09;;;12.29;100.00
11190;BME280;5651;50.926;4.718;2023-04-01T14:58:50;100090.59;;;12.22;100.00
11190;BME280;5651;50.926;4.718;2023-04-01T15:01:37;100092.28;;;12.25;100.00
11190;BME280;5651;50.926;4.718;2023-04-01T15:09:22;100103.09;;;12.47;100.00
11190;BME280;5651;50.926;4.718;2023-04-01T15:12:04;100103.03;;;12.48;100.00
11190;BME280;5651;50.926;4.718;2023-04-01T15:14:48;100099.84;;;12.37;100.00
11190;BME280;5651;50.926;4.718;2023-04-01T15:31:38;100128.34;;;12.09;100.00
11190;BME280;5651;50.926;4.718;2023-04-01T15:39:54;100134.72;;;11.95;100.00
11190;BME280;5651;50.926;4.718;2023-04-01T15:45:55;100137.78;;;11.73;100.00
11190;BME280;5651;50.926;4.718;2023-04-01T15:48:40;100139.50;;;11.74;100.00
11190;BME280;5651;50.926;4.718;2023-04-01T15:51:42;100146.19;;;11.88;100.00
11190;BME280;5651;50.926;4.718;2023-04-01T15:59:52;100154.31;;;11.74;100.00
11190;BME280;5651;50.926;4.718;2023-04-01T16:02:46;100152.81;;;11.62;100.00
11190;BME280;5651;50.926;4.718;2023-04-01T16:10:48;100162.41;;;11.60;100.00
11190;BME280;5651;50.926;4.718;2023-04-01T16:13:42;100164.19;;;11.58;100.00
11190;BME280;5651;50.926;4.718;2023-04-01T16:16:46;100172.13;;;11.53;100.00
11190;BME280;5651;50.926;4.718;2023-04-01T16:25:21;100178.69;;;11.28;100.00
11190;BME280;5651;50.926;4.718;2023-04-01T16:36:43;100195.75;;;10.97;100.00
11190;BME280;5651;50.926;4.718;2023-04-01T16:44:47;100196.84;;;10.82;100.00
11190;BME280;5651;50.926;4.718;2023-04-01T16:47:22;100206.53;;;10.74;100.00
11190;BME280;5651;50.926;4.718;2023-04-01T16:53:13;100201.47;;;10.65;100.00
11190;BME280;5651;50.926;4.718;2023-04-01T16:58:34;100214.50;;;10.63;100.00
11190;BME280;5651;50.926;4.718;2023-04-01T17:01:12;100226.75;;;10.58;100.00
11190;BME280;5651;50.926;4.718;2023-04-01T17:03:43;100221.63;;;10.52;100.00
11190;BME280;5651;50.926;4.718;2023-04-01T17:06:37;100225.06;;;10.54;100.00
11190;BME280;5651;50.926;4.718;2023-04-01T17:17:41;100246.97;;;10.40;100.00
11190;BME280;5651;50.926;4.718;2023-04-01T17:20:39;100236.53;;;10.40;100.00
11190;BME280;5651;50.926;4.718;2023-04-01T17:23:13;100246.25;;;10.26;100.00
11190;BME280;5651;50.926;4.718;2023-04-01T17:25:54;100245.38;;;10.27;100.00
11190;BME280;5651;50.926;4.718;2023-04-01T17:39:15;100263.72;;;10.19;100.00
11190;BME280;5651;50.926;4.718;2023-04-01T17:42:14;100261.09;;;10.18;100.00
11190;BME280;5651;50.926;4.718;2023-04-01T17:44:52;100266.44;;;10.07;100.00
11190;BME280;5651;50.926;4.718;2023-04-01T17:47:41;100275.19;;;10.03;100.00
11190;BME280;5651;50.926;4.718;2023-04-01T17:50:21;100273.41;;;10.06;100.00
11190;BME280;5651;50.926;4.718;2023-04-01T17:55:46;100281.16;;;10.11;100.00
11190;BME280;5651;50.926;4.718;2023-04-01T17:58:27;100284.75;;;10.01;100.00
11190;BME280;5651;50.926;4.718;2023-04-01T18:06:57;100294.31;;;10.00;100.00
11190;BME280;5651;50.926;4.718;2023-04-01T18:18:33;100314.31;;;9.93;100.00
11190;BME280;5651;50.926;4.718;2023-04-01T18:27:17;100323.81;;;9.99;100.00
11190;BME280;5651;50.926;4.718;2023-04-01T18:29:54;100338.59;;;9.94;100.00
11190;BME280;5651;50.926;4.718;2023-04-01T18:32:37;100335.06;;;9.99;100.00
11190;BME280;5651;50.926;4.718;2023-04-01T18:38:11;100351.53;;;10.03;100.00
11190;BME280;5651;50.926;4.718;2023-04-01T18:48:15;100367.28;;;9.91;100.00
11190;BME280;5651;50.926;4.718;2023-04-01T18:50:57;100371.59;;;9.92;100.00
11190;BME280;5651;50.926;4.718;2023-04-01T18:59:16;100375.94;;;9.93;100.00
11190;BME280;5651;50.926;4.718;2023-04-01T19:04:26;100384.69;;;9.86;100.00
11190;BME280;5651;50.926;4.718;2023-04-01T19:07:01;100386.38;;;9.87;100.00
11190;BME280;5651;50.926;4.718;2023-04-01T19:09:43;100395.03;;;9.89;100.00
11190;BME280;5651;50.926;4.718;2023-04-01T19:15:01;100393.41;;;9.77;100.00
11190;BME280;5651;50.926;4.718;2023-04-01T19:17:47;100399.47;;;9.79;100.00
11190;BME280;5651;50.926;4.718;2023-04-01T19:20:41;100413.34;;;9.79;100.00
11190;BME280;5651;50.926;4.718;2023-04-01T19:25:51;100421.13;;;9.79;100.00
11190;BME280;5651;50.926;4.718;2023-04-01T19:28:46;100416.81;;;9.77;100.00
11190;BME280;5651;50.926;4.718;2023-04-01T19:31:38;100422.94;;;9.71;100.00
11190;BME280;5651;50.926;4.718;2023-04-01T19:36:49;100427.28;;;9.72;100.00
11190;BME280;5651;50.926;4.718;2023-04-01T19:42:01;100434.22;;;9.72;100.00
11190;BME280;5651;50.926;4.718;2023-04-01T19:47:35;100442.03;;;9.68;100.00
11190;BME280;5651;50.926;4.718;2023-04-01T19:53:11;100451.63;;;9.66;100.00
11190;BME280;5651;50.926;4.718;2023-04-01T19:55:50;100447.25;;;9.70;100.00
11190;BME280;5651;50.926;4.718;2023-04-01T20:00:56;100460.25;;;9.68;100.00
11190;BME280;5651;50.926;4.718;2023-04-01T20:06:14;100468.16;;;9.53;100.00
11190;BME280;5651;50.926;4.718;2023-04-01T20:17:21;100481.13;;;9.62;100.00
11190;BME280;5651;50.926;4.718;2023-04-01T20:20:14;100481.09;;;9.67;100.00
11190;BME280;5651;50.926;4.718;2023-04-01T20:27:50;100484.56;;;9.64;100.00
11190;BME280;5651;50.926;4.718;2023-04-01T20:30:38;100488.06;;;9.63;100.00
11190;BME280;5651;50.926;4.718;2023-04-01T20:36:13;100499.31;;;9.65;100.00
11190;BME280;5651;50.926;4.718;2023-04-01T20:39:08;100514.06;;;9.60;100.00
11190;BME280;5651;50.926;4.718;2023-04-01T20:47:01;100526.16;;;9.67;100.00
11190;BME280;5651;50.926;4.718;2023-04-01T20:52:40;100536.63;;;9.61;100.00
11190;BME280;5651;50.926;4.718;2023-04-01T21:39:42;100608.50;;;9.82;100.00
11190;BME280;5651;50.926;4.718;2023-04-01T21:45:05;100620.63;;;9.85;100.00
11190;BME280;5651;50.926;4.718;2023-04-01T21:53:42;100634.50;;;9.84;100.00
11190;BME280;5651;50.926;4.718;2023-04-01T22:01:54;100652.72;;;9.82;100.00
11190;BME280;5651;50.926;4.718;2023-04-01T22:07:37;100659.69;;;9.77;100.00
11190;BME280;5651;50.926;4.718;2023-04-01T22:18:25;100680.56;;;9.63;100.00
11190;BME280;5651;50.926;4.718;2023-04-01T22:21:00;100687.50;;;9.63;100.00
11190;BME280;5651;50.926;4.718;2023-04-01T22:23:39;100691.81;;;9.64;100.00
11190;BME280;5651;50.926;4.718;2023-04-01T22:26:37;100698.75;;;9.65;100.00
11190;BME280;5651;50.926;4.718;2023-04-01T22:32:06;100713.53;;;9.57;100.00
11190;BME280;5651;50.926;4.718;2023-04-01T22:34:37;100710.91;;;9.57;100.00
11190;BME280;5651;50.926;4.718;2023-04-01T22:40:35;100719.59;;;9.56;100.00
11190;BME280;5651;50.926;4.718;2023-04-01T22:43:11;100718.72;;;9.52;100.00
11190;BME280;5651;50.926;4.718;2023-04-01T22:48:41;100730.91;;;9.50;100.00
11190;BME280;5651;50.926;4.718;2023-04-01T22:51:20;100732.63;;;9.51;100.00
11190;BME280;5651;50.926;4.718;2023-04-01T22:56:23;100749.09;;;9.47;100.00
11190;BME280;5651;50.926;4.718;2023-04-01T23:01:25;100745.63;;;9.43;100.00
11190;BME280;5651;50.926;4.718;2023-04-01T23:03:55;100750.88;;;9.40;100.00